createdAt,value
2018-11-12T00:04:06.136Z,18.57
2018-11-12T00:09:08.791Z,18.20
2018-11-12T00:14:10.798Z,18.30
2018-11-12T00:19:12.779Z,19.03
2018-11-12T00:24:15.298Z,18.50
2018-11-12T00:29:17.319Z,18.10
2018-11-12T00:34:19.319Z,17.90
2018-11-12T00:39:22.095Z,17.20
2018-11-12T00:44:24.328Z,15.97
2018-11-12T00:49:26.390Z,17.63
2018-11-12T00:54:28.637Z,16.97
2018-11-12T00:59:30.661Z,16.77
2018-11-12T01:04:32.671Z,18.30
2018-11-12T01:09:34.700Z,17.73
2018-11-12T01:14:36.684Z,17.70
2018-11-12T01:19:38.661Z,17.20
2018-11-12T01:24:40.673Z,16.13
2018-11-12T01:29:42.666Z,16.53
2018-11-12T01:34:44.645Z,15.17
2018-11-12T01:39:46.842Z,15.20
2018-11-12T01:44:48.827Z,14.10
2018-11-12T01:49:51.043Z,14.90
2018-11-12T01:54:53.091Z,14.97
2018-11-12T01:59:55.074Z,16.00
2018-11-12T02:04:57.496Z,15.63
2018-11-12T02:09:59.636Z,16.13
2018-11-12T02:15:01.651Z,15.70
2018-11-12T02:20:04.838Z,15.37
2018-11-12T02:25:07.397Z,13.63
2018-11-12T02:30:11.092Z,14.07
2018-11-12T02:35:13.115Z,13.87
2018-11-12T02:40:16.115Z,14.57
2018-11-12T02:45:19.035Z,13.40
2018-11-12T02:50:21.004Z,13.73
2018-11-12T02:55:23.965Z,13.13
2018-11-12T03:00:25.946Z,14.13
2018-11-12T03:05:27.985Z,14.77
2018-11-12T03:10:31.042Z,13.73
2018-11-12T03:15:33.374Z,14.10
2018-11-12T03:20:35.357Z,14.97
2018-11-12T03:25:37.693Z,15.17
2018-11-12T03:30:39.677Z,14.37
2018-11-12T03:35:42.028Z,14.50
2018-11-12T03:40:44.155Z,14.30
2018-11-12T03:45:46.150Z,14.10
2018-11-12T03:50:48.605Z,13.83
2018-11-12T03:55:50.630Z,14.20
2018-11-12T04:00:52.678Z,13.30
2018-11-12T04:05:54.649Z,13.47
2018-11-12T04:10:56.646Z,13.70
2018-11-12T04:15:59.634Z,13.50
2018-11-12T04:21:01.599Z,13.87
2018-11-12T04:26:03.988Z,12.97
2018-11-12T04:31:05.979Z,12.53
2018-11-12T04:36:07.975Z,12.10
2018-11-12T04:41:10.042Z,11.97
2018-11-12T04:46:12.058Z,12.10
2018-11-12T04:51:14.056Z,11.50
2018-11-12T04:56:16.069Z,11.30
2018-11-12T05:01:18.113Z,11.63
2018-11-12T05:06:20.158Z,10.67
2018-11-12T05:11:22.609Z,9.63
2018-11-12T05:16:24.591Z,10.10
2018-11-12T05:21:26.727Z,11.00
2018-11-12T05:26:28.813Z,10.80
2018-11-12T05:31:31.111Z,10.67
2018-11-12T05:36:33.468Z,10.97
2018-11-12T05:41:35.477Z,11.03
2018-11-12T05:46:37.976Z,10.73
2018-11-12T05:51:40.013Z,11.00
2018-11-12T06:01:50.801Z,10.63
2018-11-12T06:06:52.828Z,10.70
2018-11-12T06:11:54.845Z,9.70
2018-11-12T06:16:56.847Z,9.70
2018-11-12T06:21:59.314Z,10.57
2018-11-12T06:27:02.823Z,10.50
2018-11-12T06:32:05.139Z,11.57
2018-11-12T06:37:07.141Z,10.13
2018-11-12T06:42:09.506Z,10.17
2018-11-12T06:47:11.519Z,10.10
2018-11-12T06:52:13.519Z,9.03
2018-11-12T06:57:15.529Z,9.37
2018-11-12T07:02:17.515Z,8.77
2018-11-12T07:07:19.820Z,9.47
2018-11-12T07:12:21.856Z,9.33
2018-11-12T07:17:40.223Z,8.90
2018-11-12T07:22:59.490Z,8.60
2018-11-12T07:28:01.684Z,8.07
2018-11-12T07:33:03.692Z,8.00
2018-11-12T07:38:05.777Z,7.53
2018-11-12T07:43:07.779Z,6.87
2018-11-12T07:48:10.488Z,6.57
2018-11-12T07:53:12.503Z,7.07
2018-11-12T07:58:14.510Z,6.73
2018-11-12T08:03:16.623Z,6.40
2018-11-12T08:08:18.851Z,6.33
2018-11-12T08:13:20.884Z,6.53
2018-11-12T08:18:22.858Z,6.53
2018-11-12T08:23:24.859Z,6.20
2018-11-12T08:28:26.858Z,5.97
2018-11-12T08:33:29.370Z,5.80
2018-11-12T08:38:31.427Z,5.80
2018-11-12T08:43:33.501Z,5.50
2018-11-12T08:48:35.588Z,4.93
2018-11-12T08:53:37.721Z,5.63
2018-11-12T08:58:40.040Z,5.47
2018-11-12T09:03:42.053Z,5.47
2018-11-12T09:08:44.087Z,5.20
2018-11-12T09:13:46.741Z,4.90
2018-11-12T09:18:48.774Z,5.83
2018-11-12T09:23:50.780Z,5.07
2018-11-12T09:28:53.031Z,4.63
2018-11-12T09:43:59.279Z,4.33
2018-11-12T09:49:01.344Z,4.27
2018-11-12T09:54:03.387Z,4.07
2018-11-12T09:59:05.614Z,3.90
2018-11-12T10:04:08.369Z,3.67
2018-11-12T10:09:13.764Z,3.63
2018-11-12T10:14:16.193Z,3.20
2018-11-12T10:19:15.722Z,3.67
2018-11-12T10:24:17.715Z,3.30
2018-11-12T10:29:19.710Z,3.30
2018-11-12T10:34:21.720Z,3.17
2018-11-12T10:39:23.907Z,3.30
2018-11-12T10:44:26.584Z,3.47
2018-11-12T10:49:28.611Z,3.30
2018-11-12T10:54:30.727Z,3.30
2018-11-12T10:59:32.715Z,3.13
2018-11-12T11:04:34.707Z,3.03
2018-11-12T11:09:36.730Z,2.50
2018-11-12T11:14:38.890Z,2.97
2018-11-12T11:19:40.921Z,2.60
2018-11-12T11:24:42.909Z,2.37
2018-11-12T11:29:44.934Z,2.77
2018-11-12T11:34:46.931Z,2.60
2018-11-12T11:39:48.924Z,2.50
2018-11-12T11:44:50.975Z,2.30
2018-11-12T11:49:52.971Z,2.37
2018-11-12T11:54:55.019Z,2.10
2018-11-12T11:59:56.986Z,2.20
2018-11-12T12:04:58.947Z,2.23
2018-11-12T12:10:00.968Z,2.20
2018-11-12T12:15:03.895Z,2.40
2018-11-12T12:20:08.595Z,2.30
2018-11-12T12:25:11.967Z,2.00
2018-11-12T12:30:19.875Z,2.13
2018-11-12T12:35:22.544Z,2.27
2018-11-12T12:45:39.635Z,2.50
2018-11-12T12:50:41.465Z,2.27
2018-11-12T12:55:43.628Z,2.40
2018-11-12T13:00:45.501Z,2.60
2018-11-12T13:05:47.497Z,2.53
2018-11-12T13:10:49.507Z,2.73
2018-11-12T13:15:51.622Z,2.50
2018-11-12T13:20:53.653Z,2.57
2018-11-12T13:25:55.642Z,2.60
2018-11-12T13:30:57.667Z,2.10
2018-11-12T13:36:00.152Z,2.40
2018-11-12T13:41:02.134Z,2.60
2018-11-12T13:46:05.125Z,2.70
2018-11-12T13:51:07.138Z,2.73
2018-11-12T13:56:09.145Z,2.73
2018-11-12T14:01:11.177Z,2.70
2018-11-12T14:06:13.182Z,2.30
2018-11-12T14:11:15.204Z,2.63
2018-11-12T14:16:17.707Z,2.47
2018-11-12T14:21:19.835Z,2.53
2018-11-12T14:26:21.719Z,2.73
2018-11-12T14:31:24.571Z,2.90
2018-11-12T14:36:33.413Z,2.60
2018-11-12T14:41:35.471Z,2.77
2018-11-12T14:46:37.771Z,2.57
2018-11-12T14:51:39.779Z,2.60
2018-11-12T14:56:41.750Z,2.87
2018-11-12T15:01:43.876Z,2.70
2018-11-12T15:06:45.818Z,2.90
2018-11-12T15:11:47.815Z,3.07
2018-11-12T15:16:49.838Z,3.13
2018-11-12T15:21:51.815Z,3.20
2018-11-12T15:26:53.855Z,3.57
2018-11-12T15:31:55.895Z,2.80
2018-11-12T15:36:58.202Z,3.20
2018-11-12T15:42:00.399Z,3.60
2018-11-12T15:47:02.682Z,4.30
2018-11-12T15:52:04.751Z,4.27
2018-11-12T15:57:06.921Z,4.13
2018-11-12T16:02:09.177Z,3.77
2018-11-12T16:07:11.179Z,3.87
2018-11-12T16:12:13.294Z,3.80
2018-11-12T16:17:15.419Z,4.10
2018-11-12T16:22:17.434Z,3.60
2018-11-12T16:27:19.470Z,3.73
2018-11-12T16:32:21.494Z,4.00
2018-11-12T16:37:23.740Z,3.83
2018-11-12T16:42:25.775Z,3.40
2018-11-12T16:47:27.991Z,4.03
2018-11-12T16:52:29.994Z,3.43
2018-11-12T16:57:32.002Z,4.03
2018-11-12T17:02:34.117Z,4.00
2018-11-12T17:07:36.115Z,4.33
2018-11-12T17:12:39.000Z,4.50
2018-11-12T17:17:41.327Z,4.50
2018-11-12T17:22:43.790Z,4.17
2018-11-12T17:27:46.269Z,5.03
2018-11-12T17:32:48.876Z,5.57
2018-11-12T17:37:51.035Z,5.43
2018-11-12T17:42:54.027Z,4.63
2018-11-12T17:47:57.264Z,5.20
2018-11-12T17:53:00.150Z,5.17
2018-11-12T17:58:02.194Z,5.40
2018-11-12T18:03:04.912Z,5.50
2018-11-12T18:08:07.480Z,5.10
2018-11-12T18:13:09.610Z,6.20
2018-11-12T18:18:11.597Z,6.00
2018-11-12T18:23:13.809Z,6.73
2018-11-12T18:28:15.999Z,7.27
2018-11-12T18:33:17.970Z,6.70
2018-11-12T18:38:20.111Z,7.10
2018-11-12T18:43:22.793Z,7.83
2018-11-12T18:48:25.068Z,7.73
2018-11-12T18:53:27.127Z,8.00
2018-11-12T18:58:29.457Z,8.30
2018-11-12T19:03:32.133Z,8.40
2018-11-12T19:08:34.546Z,7.70
2018-11-12T19:13:36.557Z,8.80
2018-11-12T19:18:38.761Z,8.20
2018-11-12T19:23:41.258Z,10.23
2018-11-12T19:28:43.381Z,8.43
2018-11-12T19:33:45.601Z,8.80
2018-11-12T19:38:47.573Z,9.07
2018-11-12T19:43:57.099Z,8.80
2018-11-12T19:48:59.506Z,8.97
2018-11-12T19:54:02.189Z,9.27
2018-11-12T19:59:04.362Z,9.17
2018-11-12T20:04:06.880Z,9.23
2018-11-12T20:09:09.466Z,9.23
2018-11-12T20:14:11.476Z,8.97
2018-11-12T20:19:13.571Z,8.40
2018-11-12T20:24:15.619Z,6.80
2018-11-12T20:29:17.595Z,6.90
2018-11-12T20:34:20.053Z,6.60
2018-11-12T20:39:22.106Z,6.00
2018-11-12T20:44:24.995Z,5.67
2018-11-12T20:49:27.120Z,5.90
2018-11-12T20:54:29.762Z,5.93
2018-11-12T20:59:32.110Z,5.27
2018-11-12T21:04:34.126Z,6.77
2018-11-12T21:09:36.179Z,7.40
2018-11-12T21:14:38.527Z,6.80
2018-11-12T21:19:41.026Z,7.90
2018-11-12T21:24:43.287Z,7.57
2018-11-12T21:29:45.479Z,7.77
2018-11-12T21:34:47.562Z,7.00
2018-11-12T21:39:49.558Z,6.50
2018-11-12T21:44:51.553Z,6.50
2018-11-12T21:49:54.469Z,6.67
2018-11-12T21:54:56.496Z,7.10
2018-11-12T21:59:58.488Z,7.30
2018-11-12T22:05:00.473Z,7.03
2018-11-12T22:10:02.493Z,7.20
2018-11-12T22:15:05.596Z,6.90
2018-11-12T22:20:09.361Z,7.07
2018-11-12T22:25:16.846Z,6.37
2018-11-12T22:30:20.055Z,6.17
2018-11-12T22:35:22.058Z,6.10
2018-11-12T22:40:24.051Z,5.43
2018-11-12T22:45:26.336Z,5.60
2018-11-12T22:50:28.369Z,5.60
2018-11-12T22:55:31.647Z,5.40
2018-11-12T23:00:37.635Z,5.77
2018-11-12T23:05:39.667Z,5.80
2018-11-12T23:10:42.242Z,5.43
2018-11-12T23:15:44.218Z,5.60
2018-11-12T23:20:46.261Z,5.30
2018-11-12T23:25:49.055Z,5.53
2018-11-12T23:30:51.586Z,5.43
2018-11-12T23:35:53.816Z,4.53
2018-11-12T23:40:55.753Z,5.27
2018-11-12T23:45:57.754Z,4.67
2018-11-12T23:50:59.811Z,4.70
2018-11-12T23:56:01.982Z,4.17
